createdAt,value
2024-01-16T00:02:13.128Z,0.64
2024-01-16T00:05:16.492Z,0.68
2024-01-16T00:08:19.264Z,0.68
2024-01-16T00:11:22.309Z,0.60
2024-01-16T00:14:25.009Z,0.62
2024-01-16T00:17:27.909Z,0.64
2024-01-16T00:20:30.642Z,0.64
2024-01-16T00:23:33.827Z,0.55
2024-01-16T00:26:37.076Z,0.59
2024-01-16T00:29:40.097Z,0.52
2024-01-16T00:32:42.959Z,0.62
2024-01-16T00:35:46.145Z,0.69
2024-01-16T00:38:49.659Z,0.58
2024-01-16T00:41:52.942Z,0.52
2024-01-16T00:44:55.718Z,0.73
2024-01-16T00:47:58.808Z,0.82
2024-01-16T00:51:01.470Z,0.86
2024-01-16T00:54:04.494Z,0.97
2024-01-16T00:57:07.364Z,1.05
2024-01-16T01:00:12.826Z,1.12
2024-01-16T01:03:15.677Z,1.28
2024-01-16T01:06:19.142Z,1.25
2024-01-16T01:09:22.048Z,1.13
2024-01-16T01:12:24.955Z,0.99
2024-01-16T01:15:27.774Z,1.01
2024-01-16T01:18:30.997Z,1.07
2024-01-16T01:21:33.649Z,1.15
2024-01-16T01:24:36.654Z,1.18
2024-01-16T01:27:40.320Z,1.04
2024-01-16T01:30:43.205Z,1.06
2024-01-16T01:33:45.950Z,1.06
2024-01-16T01:36:48.922Z,1.04
2024-01-16T01:39:51.477Z,0.92
2024-01-16T01:42:54.382Z,0.96
2024-01-16T01:46:15.682Z,1.02
2024-01-16T01:49:18.920Z,1.08
2024-01-16T01:52:21.672Z,1.04
2024-01-16T01:55:24.525Z,1.01
2024-01-16T01:58:27.315Z,0.96
2024-01-16T02:01:32.972Z,0.94
2024-01-16T02:04:36.688Z,0.96
2024-01-16T02:07:40.056Z,0.91
2024-01-16T02:10:47.096Z,0.93
2024-01-16T02:13:50.017Z,0.84
2024-01-16T02:16:52.710Z,0.83
2024-01-16T02:19:55.773Z,0.74
2024-01-16T02:23:04.327Z,0.80
2024-01-16T02:26:07.513Z,0.78
2024-01-16T02:29:10.499Z,0.71
2024-01-16T02:32:14.452Z,0.72
2024-01-16T02:35:18.340Z,0.81
2024-01-16T02:38:21.515Z,0.79
2024-01-16T02:41:24.225Z,0.69
2024-01-16T02:44:27.511Z,0.60
2024-01-16T02:47:30.606Z,0.62
2024-01-16T02:50:33.692Z,0.76
2024-01-16T02:53:36.755Z,0.77
2024-01-16T02:56:39.642Z,0.55
2024-01-16T02:59:45.149Z,0.59
2024-01-16T03:02:48.330Z,0.60
2024-01-16T03:05:51.318Z,0.61
2024-01-16T03:08:54.341Z,0.63
2024-01-16T03:11:57.023Z,0.57
2024-01-16T03:15:00.322Z,0.52
2024-01-16T03:18:03.213Z,0.57
2024-01-16T03:21:09.702Z,0.58
2024-01-16T03:24:12.375Z,0.67
2024-01-16T03:27:15.317Z,0.60
2024-01-16T03:30:18.509Z,0.55
2024-01-16T03:33:21.826Z,0.51
2024-01-16T03:36:25.473Z,0.65
2024-01-16T03:39:28.765Z,0.62
2024-01-16T03:42:31.379Z,0.70
2024-01-16T03:45:34.272Z,0.72
2024-01-16T03:48:36.991Z,0.75
2024-01-16T03:51:47.607Z,0.80
2024-01-16T03:54:50.524Z,0.75
2024-01-16T03:57:53.511Z,0.70
2024-01-16T04:00:56.212Z,0.70
2024-01-16T04:03:59.214Z,0.75
2024-01-16T04:07:01.935Z,0.68
2024-01-16T04:10:06.433Z,0.75
2024-01-16T04:13:09.240Z,0.78
2024-01-16T04:16:13.727Z,0.81
2024-01-16T04:19:16.440Z,0.70
2024-01-16T04:22:19.360Z,0.75
2024-01-16T04:25:22.016Z,0.72
2024-01-16T04:28:25.034Z,0.77
2024-01-16T04:31:27.662Z,0.77
2024-01-16T04:34:31.108Z,0.73
2024-01-16T04:37:34.173Z,0.79
2024-01-16T04:40:37.145Z,0.76
2024-01-16T04:43:39.708Z,0.81
2024-01-16T04:46:42.640Z,0.78
2024-01-16T04:49:45.207Z,0.61
2024-01-16T04:52:48.759Z,0.64
2024-01-16T04:55:52.166Z,0.67
2024-01-16T04:58:55.150Z,0.71
2024-01-16T05:01:57.729Z,0.70
2024-01-16T05:05:01.001Z,0.80
2024-01-16T05:08:04.118Z,0.72
2024-01-16T05:11:08.684Z,0.69
2024-01-16T05:14:11.343Z,0.55
2024-01-16T05:17:14.390Z,0.64
2024-01-16T05:20:17.165Z,0.61
2024-01-16T05:23:20.129Z,0.62
2024-01-16T05:26:23.448Z,0.72
2024-01-16T05:29:26.446Z,0.64
2024-01-16T05:32:29.090Z,0.68
2024-01-16T05:35:32.164Z,0.61
2024-01-16T05:38:36.321Z,0.67
2024-01-16T05:41:39.289Z,0.73
2024-01-16T05:44:42.065Z,0.76
2024-01-16T05:47:45.636Z,0.72
2024-01-16T05:50:48.520Z,0.68
2024-01-16T05:53:51.550Z,0.70
2024-01-16T05:56:54.227Z,0.73
2024-01-16T05:59:57.281Z,0.67
2024-01-16T06:02:59.980Z,0.66
2024-01-16T06:06:02.996Z,0.61
2024-01-16T06:09:06.856Z,0.62
2024-01-16T06:12:09.981Z,0.54
2024-01-16T06:15:12.805Z,0.56
2024-01-16T06:18:15.996Z,0.51
2024-01-16T06:21:20.497Z,0.45
2024-01-16T06:24:24.683Z,0.48
2024-01-16T06:27:27.299Z,0.37
2024-01-16T06:30:30.307Z,0.38
2024-01-16T06:33:33.135Z,0.40
2024-01-16T06:36:36.229Z,0.43
2024-01-16T06:39:39.192Z,0.38
2024-01-16T06:42:42.070Z,0.43
2024-01-16T06:45:45.359Z,0.41
2024-01-16T06:48:49.957Z,0.38
2024-01-16T06:51:52.738Z,0.29
2024-01-16T06:54:55.675Z,0.26
2024-01-16T06:57:58.320Z,0.25
2024-01-16T07:01:01.960Z,0.29
2024-01-16T07:04:04.709Z,0.30
2024-01-16T07:07:07.624Z,0.26
2024-01-16T07:10:14.518Z,0.36
2024-01-16T07:13:17.422Z,0.35
2024-01-16T07:16:20.140Z,0.44
2024-01-16T07:19:23.058Z,0.46
2024-01-16T07:22:25.735Z,0.58
2024-01-16T07:25:29.215Z,0.67
2024-01-16T07:28:31.947Z,0.77
2024-01-16T07:31:34.885Z,0.83
2024-01-16T07:34:37.775Z,0.88
2024-01-16T07:37:40.706Z,0.95
2024-01-16T07:40:43.317Z,1.11
2024-01-16T07:43:48.972Z,1.27
2024-01-16T07:46:52.643Z,1.31
2024-01-16T07:49:55.570Z,1.43
2024-01-16T07:52:58.619Z,1.53
2024-01-16T07:56:01.465Z,1.65
2024-01-16T07:59:04.309Z,1.70
2024-01-16T08:02:07.520Z,1.67
2024-01-16T08:05:10.748Z,1.65
2024-01-16T08:08:13.552Z,1.63
2024-01-16T08:11:17.368Z,1.68
2024-01-16T08:14:19.978Z,1.71
2024-01-16T08:17:22.893Z,1.68
2024-01-16T08:20:25.526Z,1.68
2024-01-16T08:23:28.506Z,1.74
2024-01-16T08:26:31.320Z,1.82
2024-01-16T08:29:34.385Z,1.72
2024-01-16T08:32:37.857Z,1.72
2024-01-16T08:35:40.832Z,1.67
2024-01-16T08:38:43.683Z,1.63
2024-01-16T08:41:47.004Z,1.80
2024-01-16T08:44:49.965Z,1.87
2024-01-16T08:47:53.160Z,1.93
2024-01-16T08:50:56.673Z,1.87
2024-01-16T08:53:59.594Z,2.06
2024-01-16T08:57:02.346Z,2.14
2024-01-16T09:00:10.033Z,2.24
2024-01-16T09:03:13.231Z,2.13
2024-01-16T09:06:16.556Z,2.09
2024-01-16T09:09:19.229Z,2.18
2024-01-16T09:12:22.261Z,2.24
2024-01-16T09:15:25.061Z,2.24
2024-01-16T09:18:28.153Z,2.08
2024-01-16T09:21:31.061Z,1.97
2024-01-16T09:24:34.070Z,2.00
2024-01-16T09:27:36.631Z,1.95
2024-01-16T09:30:39.540Z,1.94
2024-01-16T09:33:42.316Z,1.97
2024-01-16T09:36:45.266Z,2.01
2024-01-16T09:39:48.028Z,2.05
2024-01-16T09:42:51.330Z,2.07
2024-01-16T09:45:58.862Z,2.16
2024-01-16T09:49:03.739Z,2.27
2024-01-16T09:52:06.975Z,2.34
2024-01-16T09:55:10.872Z,2.51
2024-01-16T09:58:15.671Z,2.76
2024-01-16T10:01:19.723Z,2.84
2024-01-16T10:04:22.862Z,2.71
2024-01-16T10:07:29.201Z,2.68
2024-01-16T10:10:42.261Z,2.67
2024-01-16T10:13:52.747Z,2.67
2024-01-16T10:17:17.153Z,2.81
2024-01-16T10:20:34.850Z,2.69
2024-01-16T10:23:40.106Z,2.61
2024-01-16T10:26:42.740Z,2.68
2024-01-16T10:29:59.643Z,2.74
2024-01-16T10:33:15.881Z,2.69
2024-01-16T10:36:21.826Z,2.67
2024-01-16T10:39:32.314Z,2.49
2024-01-16T10:42:41.057Z,2.37
2024-01-16T10:45:43.776Z,2.41
2024-01-16T10:49:04.600Z,2.49
2024-01-16T10:52:12.162Z,2.55
2024-01-16T10:55:23.991Z,2.70
2024-01-16T10:58:29.226Z,2.69
2024-01-16T11:01:33.655Z,2.71
2024-01-16T11:04:38.848Z,2.75
2024-01-16T11:07:43.746Z,2.77
2024-01-16T11:10:48.205Z,2.92
2024-01-16T11:13:52.225Z,3.05
2024-01-16T11:16:57.763Z,3.07
2024-01-16T11:20:13.731Z,3.02
2024-01-16T11:23:24.943Z,3.05
2024-01-16T11:26:35.551Z,3.14
2024-01-16T11:29:38.469Z,3.13
2024-01-16T11:32:43.047Z,3.33
2024-01-16T11:35:45.932Z,3.49
2024-01-16T11:38:49.147Z,3.74
2024-01-16T11:41:54.498Z,3.85
2024-01-16T11:44:57.894Z,3.73
2024-01-16T11:48:18.251Z,3.82
2024-01-16T11:51:25.935Z,3.66
2024-01-16T11:54:28.546Z,3.71
2024-01-16T11:57:48.400Z,3.70
2024-01-16T12:00:54.725Z,3.70
2024-01-16T12:04:05.976Z,3.58
2024-01-16T12:07:09.604Z,3.63
2024-01-16T12:10:12.555Z,3.78
2024-01-16T12:13:15.332Z,3.72
2024-01-16T12:16:20.649Z,4.01
2024-01-16T12:19:24.111Z,4.32
2024-01-16T12:22:27.240Z,5.08
2024-01-16T12:26:00.132Z,5.20
2024-01-16T12:28:58.764Z,5.16
2024-01-16T12:32:22.505Z,5.16
2024-01-16T12:35:25.865Z,5.28
2024-01-16T12:38:28.703Z,5.09
2024-01-16T12:41:42.930Z,5.06
2024-01-16T12:44:47.861Z,4.98
2024-01-16T12:47:55.140Z,4.97
2024-01-16T12:51:06.220Z,5.16
2024-01-16T12:54:16.729Z,5.16
2024-01-16T12:57:21.281Z,4.93
2024-01-16T13:00:27.458Z,5.52
2024-01-16T13:03:31.409Z,5.58
2024-01-16T13:06:35.340Z,5.53
2024-01-16T13:09:38.161Z,5.71
2024-01-16T13:12:42.121Z,5.59
2024-01-16T13:15:48.233Z,5.60
2024-01-16T13:19:02.542Z,5.54
2024-01-16T13:22:05.376Z,5.05
2024-01-16T13:25:09.505Z,4.84
2024-01-16T13:28:16.093Z,4.63
2024-01-16T13:31:19.128Z,4.65
2024-01-16T13:34:24.416Z,4.59
2024-01-16T13:37:29.075Z,4.56
2024-01-16T13:40:32.145Z,4.37
2024-01-16T13:43:34.962Z,4.19
2024-01-16T13:46:50.037Z,3.96
2024-01-16T13:50:00.365Z,3.85
2024-01-16T13:53:03.586Z,3.84
2024-01-16T13:56:06.661Z,3.76
2024-01-16T13:59:09.368Z,3.68
2024-01-16T14:02:12.557Z,3.69
2024-01-16T14:05:19.012Z,3.63
2024-01-16T14:08:22.677Z,3.52
2024-01-16T14:11:25.503Z,3.62
2024-01-16T14:14:28.168Z,3.66
2024-01-16T14:17:31.834Z,3.69
2024-01-16T14:20:34.866Z,3.69
2024-01-16T14:23:38.484Z,3.66
2024-01-16T14:26:45.554Z,3.64
2024-01-16T14:29:48.392Z,3.67
2024-01-16T14:32:51.067Z,3.59
2024-01-16T14:35:53.915Z,3.53
2024-01-16T14:38:57.059Z,3.49
2024-01-16T14:42:00.058Z,3.53
2024-01-16T14:45:02.952Z,3.52
2024-01-16T14:48:06.604Z,3.46
2024-01-16T14:51:09.332Z,3.53
2024-01-16T14:54:12.274Z,3.47
2024-01-16T14:57:15.389Z,3.47
2024-01-16T15:00:23.993Z,3.45
2024-01-16T15:03:26.617Z,3.37
2024-01-16T15:06:30.121Z,3.24
2024-01-16T15:09:35.609Z,3.04
2024-01-16T15:12:42.529Z,3.01
2024-01-16T15:15:45.416Z,2.90
2024-01-16T15:18:48.524Z,2.78
2024-01-16T15:21:52.319Z,2.77
2024-01-16T15:24:55.609Z,2.90
2024-01-16T15:27:58.466Z,2.71
2024-01-16T15:31:08.636Z,2.61
2024-01-16T15:34:15.745Z,2.71
2024-01-16T15:37:19.943Z,2.55
2024-01-16T15:40:23.678Z,2.42
2024-01-16T15:43:26.835Z,2.34
2024-01-16T15:46:29.772Z,2.34
2024-01-16T15:49:32.819Z,2.27
2024-01-16T15:52:36.019Z,2.09
2024-01-16T15:55:39.658Z,1.96
2024-01-16T15:58:42.332Z,1.86
2024-01-16T16:01:45.290Z,1.90
2024-01-16T16:04:48.338Z,1.75
2024-01-16T16:07:50.892Z,1.62
2024-01-16T16:10:53.874Z,1.49
2024-01-16T16:13:56.535Z,1.41
2024-01-16T16:17:05.741Z,1.31
2024-01-16T16:20:10.929Z,1.14
2024-01-16T16:23:14.014Z,1.21
2024-01-16T16:26:33.367Z,1.17
2024-01-16T16:29:36.306Z,1.16
2024-01-16T16:32:39.008Z,1.35
2024-01-16T16:35:42.843Z,1.34
2024-01-16T16:38:45.615Z,1.28
2024-01-16T16:41:48.685Z,1.23
2024-01-16T16:44:51.377Z,1.39
2024-01-16T16:47:54.427Z,1.38
2024-01-16T16:50:57.211Z,1.16
2024-01-16T16:54:00.288Z,0.98
2024-01-16T16:57:03.104Z,0.85
2024-01-16T17:00:08.359Z,0.79
2024-01-16T17:03:11.113Z,0.71
2024-01-16T17:06:16.883Z,0.77
2024-01-16T17:09:21.096Z,0.93
2024-01-16T17:12:24.125Z,0.91
2024-01-16T17:15:26.755Z,0.84
2024-01-16T17:18:34.551Z,0.88
2024-01-16T17:21:38.528Z,1.06
2024-01-16T17:24:41.735Z,1.26
2024-01-16T17:27:47.152Z,1.34
2024-01-16T17:30:50.886Z,1.26
2024-01-16T17:33:53.783Z,1.20
2024-01-16T17:36:56.836Z,1.01
2024-01-16T17:39:59.458Z,0.85
2024-01-16T17:43:02.416Z,0.70
2024-01-16T17:46:05.587Z,0.69
2024-01-16T17:49:09.461Z,0.69
2024-01-16T17:52:12.148Z,0.55
2024-01-16T17:55:15.013Z,0.60
2024-01-16T17:58:19.966Z,0.52
2024-01-16T18:01:22.896Z,0.61
2024-01-16T18:04:25.818Z,0.63
2024-01-16T18:07:28.564Z,0.53
2024-01-16T18:10:31.600Z,0.54
2024-01-16T18:13:35.727Z,0.48
2024-01-16T18:16:38.802Z,0.41
2024-01-16T18:19:41.893Z,0.35
2024-01-16T18:22:47.776Z,0.51
2024-01-16T18:25:50.885Z,0.75
2024-01-16T18:28:55.444Z,0.63
2024-01-16T18:32:02.111Z,0.62
2024-01-16T18:35:06.692Z,0.69
2024-01-16T18:38:09.353Z,0.43
2024-01-16T18:41:12.370Z,0.28
2024-01-16T18:44:16.054Z,0.26
2024-01-16T18:47:21.972Z,0.08
2024-01-16T18:50:26.284Z,0.04
2024-01-16T18:53:29.373Z,0.04
2024-01-16T18:56:32.049Z,-0.01
2024-01-16T18:59:34.913Z,0.04
2024-01-16T19:02:37.586Z,-0.20
2024-01-16T19:05:40.656Z,-0.18
2024-01-16T19:08:43.585Z,-0.28
2024-01-16T19:11:55.519Z,0.02
2024-01-16T19:14:59.062Z,0.01
2024-01-16T19:18:02.357Z,-0.11
2024-01-16T19:21:10.745Z,-0.06
2024-01-16T19:24:15.944Z,-0.09
2024-01-16T19:27:22.173Z,-0.28
2024-01-16T19:30:26.835Z,-0.29
2024-01-16T19:33:30.133Z,-0.27
2024-01-16T19:36:33.275Z,-0.27
2024-01-16T19:39:40.398Z,-0.25
2024-01-16T19:42:45.016Z,-0.26
2024-01-16T19:45:50.492Z,-0.39
2024-01-16T19:48:53.606Z,-0.48
2024-01-16T19:51:56.276Z,-0.51
2024-01-16T19:55:02.095Z,-0.81
2024-01-16T19:58:05.185Z,-0.75
2024-01-16T20:04:12.093Z,-1.23
2024-01-16T20:07:15.108Z,-1.39
2024-01-16T20:10:18.770Z,-1.53
2024-01-16T20:14:32.480Z,-1.65
2024-01-16T20:17:36.052Z,-1.77
2024-01-16T20:20:39.914Z,-1.57
2024-01-16T20:23:42.841Z,-1.18
2024-01-16T20:26:45.751Z,-0.96
2024-01-16T20:29:48.663Z,-0.95
2024-01-16T20:32:53.885Z,-1.07
2024-01-16T20:35:58.862Z,-1.07
2024-01-16T20:39:01.650Z,-1.02
2024-01-16T20:42:04.848Z,-1.10
2024-01-16T20:45:10.127Z,-1.16
2024-01-16T20:48:13.849Z,-1.14
2024-01-16T20:51:17.549Z,-1.06
2024-01-16T20:54:21.107Z,-0.98
2024-01-16T20:57:24.074Z,-0.88
2024-01-16T21:00:27.297Z,-0.91
2024-01-16T21:03:31.258Z,-0.89
2024-01-16T21:06:34.802Z,-0.98
2024-01-16T21:09:37.533Z,-1.01
2024-01-16T21:12:42.572Z,-1.04
2024-01-16T21:15:47.018Z,-1.00
2024-01-16T21:18:51.220Z,-1.02
2024-01-16T21:21:56.355Z,-1.01
2024-01-16T21:24:59.368Z,-0.98
2024-01-16T21:28:02.020Z,-0.99
2024-01-16T21:31:05.468Z,-1.06
2024-01-16T21:34:08.235Z,-1.08
2024-01-16T21:37:11.160Z,-1.09
2024-01-16T21:40:14.780Z,-1.20
2024-01-16T21:43:17.607Z,-1.38
2024-01-16T21:46:20.110Z,-1.54
2024-01-16T21:49:23.000Z,-1.73
2024-01-16T21:52:25.549Z,-1.61
2024-01-16T21:55:29.015Z,-1.58
2024-01-16T21:58:31.660Z,-1.58
2024-01-16T22:01:34.608Z,-1.61
2024-01-16T22:04:41.269Z,-1.77
2024-01-16T22:07:44.637Z,-2.00
2024-01-16T22:10:47.488Z,-2.16
2024-01-16T22:13:50.041Z,-2.36
2024-01-16T22:16:52.995Z,-2.43
2024-01-16T22:19:58.740Z,-2.54
2024-01-16T22:23:01.925Z,-2.65
2024-01-16T22:26:04.824Z,-2.72
2024-01-16T22:29:10.613Z,-2.75
2024-01-16T22:32:14.582Z,-2.78
2024-01-16T22:35:17.452Z,-2.84
2024-01-16T22:38:20.044Z,-2.90
2024-01-16T22:41:23.560Z,-2.87
2024-01-16T22:44:27.771Z,-2.88
2024-01-16T22:47:30.754Z,-2.82
2024-01-16T22:50:33.392Z,-2.54
2024-01-16T22:53:36.526Z,-2.39
2024-01-16T22:56:39.273Z,-2.29
2024-01-16T22:59:42.185Z,-2.18
2024-01-16T23:02:45.906Z,-2.12
2024-01-16T23:05:49.414Z,-2.35
2024-01-16T23:08:52.040Z,-2.43
2024-01-16T23:11:55.102Z,-2.44
2024-01-16T23:14:58.657Z,-2.22
2024-01-16T23:18:01.985Z,-2.16
2024-01-16T23:21:06.841Z,-2.27
2024-01-16T23:24:10.957Z,-2.25
2024-01-16T23:27:14.033Z,-2.42
2024-01-16T23:30:19.207Z,-2.51
2024-01-16T23:33:22.345Z,-2.71
2024-01-16T23:36:25.379Z,-2.86
2024-01-16T23:39:30.140Z,-2.98
2024-01-16T23:42:33.954Z,-3.08
2024-01-16T23:45:37.199Z,-3.17
2024-01-16T23:48:43.116Z,-3.28
2024-01-16T23:51:45.836Z,-3.30
2024-01-16T23:54:48.805Z,-3.36
2024-01-16T23:57:51.565Z,-3.12
